Detall de PIREP

Printer-friendly versionPDF version

[2016/10/23 12:51:00]
Flight IATA:CT0001
Pilot Number:012
Company ICAO:CAT
Aircraft Type:B463/A
PAX:0
Aircraft Registration:CARGO
Departing Airport: LEBL
Destination Airport: LEAL
Alternate Airport:LEIB
Online: VATSIM
Route:LOTOS UM985 VLC
Flight Level:F250
No Slew and time accel
No pause
Crash detect
Detect pilot in Cockpit between each 30 and 45 minutes
12:51 Zero fuel Weight: 71701 Lbs, Fuel Weight: 14034 Lbs
12:51 VATSIM:LEBL 231230Z 10005KT 9999 FEW014 SCT020 22/18 Q1008 NOSIG
12:51 VATSIM:LEAL 231230Z 15005KT 100V230 9999 FEW020 25/17 Q1008 NOSIG
12:52 Parking Brakes off
13:00 Take-off
13:00 Take off Weight: 85185 Lbs
13:00 Wind: 099º @ 005 Knots Heading: 196º
13:00 POS N41º 17´ 46´´ E002º 05´ 19´´
13:00 Flaps:2 at 140 Knots
13:00 Gear Up: 140 Knots
13:01 Flaps:1 at 147 Knots
13:01 Flaps:0 at 152 Knots
13:15 Wind:222º@059 Knots Heading: 237º Ground Speed:346 Knots Altitude 22837 ft
13:30 Wind:216º@064 Knots Heading: 222º Ground Speed: 338 Knots Altitude 22818 ft
13:45 Wind:202º@013 Knots Heading: 226º Ground Speed: 237 Knots Altitude 6161 ft
13:45 Flaps:1 at 221 Knots
13:48 Flaps:2 at 169 Knots
13:49 Flaps:3 at 154 Knots
13:49 Gear Down: 154 Knots
13:49 Flaps:4 at 139 Knots
13:51 Flaps:3 at 139 Knots
13:53 Flaps:4 at 146 Knots
13:55 TouchDown:Rate -229 ft/min Speed: 112 Knots
13:56 VATSIM:LEAL 231330Z 18012KT 120V240 9999 FEW025 26/14 Q1007 NOSIG
13:56 Land
13:56 Wind:181º@010 Knots
13:56 Heading: 098º
13:56 Flight Duration: 00:56
13:56 Landing Weight: 80226 Lbs
13:56 POS N38º 16´ 55´´ W000º 33´ 26´´
13:58 Parking brakes on
13:58 Block to Block Duration: 01:06
13:58 Final Fuel: 8434 Lbls
13:58 Spent Fuel: 5599 Lbls
13:58 Flight Length: 265 NM
13:58 TOD Land Length: 265 NM

Exportar CSV

Powered by Drupal - Modified by Danger4k